Time;durP1;ratioP1;P1;durP2;ratioP2;P2;SDS_P1;SDS_P2;PMS_P1;PMS_P2;Temp;Humidity;BMP_temperature;BMP_pressure;BME280_temperature;BME280_humidity;BME280_pressure;Samples;Min_cycle;Max_cycle;Signal;HPM_P1;HPM_P2
2023/09/25 00:01:32;;;;;;;2.60;1.57;;;14.90;99.90;;;;;;5074786;28;20489;-46
2023/09/25 00:03:58;;;;;;;4.70;1.55;;;14.90;99.90;;;;;;5074585;28;20279;-40
2023/09/25 00:06:24;;;;;;;1.42;1.33;;;14.90;99.90;;;;;;5074562;28;20029;-38
2023/09/25 00:08:50;;;;;;;2.45;1.50;;;14.90;99.90;;;;;;5074853;28;20133;-42
2023/09/25 00:11:15;;;;;;;1.65;1.55;;;14.90;99.90;;;;;;5074725;28;20025;-40
2023/09/25 00:13:41;;;;;;;1.42;1.23;;;14.90;99.90;;;;;;5074435;28;20507;-42
2023/09/25 00:16:16;;;;;;;3.40;1.55;;;15.00;99.90;;;;;;5074272;28;20469;-40
2023/09/25 00:18:42;;;;;;;2.25;1.60;;;15.00;99.90;;;;;;5074302;28;20036;-53
2023/09/25 00:21:08;;;;;;;2.78;1.63;;;15.00;99.90;;;;;;5074230;28;20412;-54
2023/09/25 00:23:34;;;;;;;2.95;1.38;;;15.00;99.90;;;;;;5074543;28;20129;-54
2023/09/25 00:26:04;;;;;;;1.92;1.38;;;14.90;99.90;;;;;;5074260;28;20029;-53
2023/09/25 00:28:30;;;;;;;2.17;1.38;;;14.90;99.90;;;;;;5074047;28;20028;-54
2023/09/25 00:30:55;;;;;;;1.60;1.25;;;14.90;99.90;;;;;;5074062;28;20029;-54
2023/09/25 00:33:21;;;;;;;3.45;1.95;;;14.90;99.90;;;;;;5074041;28;20024;-53
2023/09/25 00:35:47;;;;;;;2.00;1.30;;;14.90;99.90;;;;;;5073927;28;20024;-52
2023/09/25 00:38:13;;;;;;;2.47;1.35;;;14.80;99.90;;;;;;5073967;28;20071;-53
2023/09/25 00:40:39;;;;;;;1.95;1.30;;;14.80;99.90;;;;;;5073880;28;20029;-54
2023/09/25 00:43:08;;;;;;;1.17;0.88;;;14.80;99.90;;;;;;5073798;28;20025;-53
2023/09/25 00:45:38;;;;;;;2.00;1.60;;;14.80;99.90;;;;;;5073743;28;20033;-53
2023/09/25 00:48:05;;;;;;;3.20;1.42;;;14.80;99.90;;;;;;5073573;28;20388;-53
2023/09/25 00:50:32;;;;;;;2.80;1.20;;;14.80;99.90;;;;;;5073971;28;20031;-51
2023/09/25 00:53:09;;;;;;;2.08;1.10;;;14.80;99.90;;;;;;5073413;28;20167;-52
2023/09/25 00:55:35;;;;;;;1.33;1.23;;;14.80;99.90;;;;;;5073726;28;20035;-54
2023/09/25 00:58:01;;;;;;;2.05;1.58;;;14.70;99.90;;;;;;5073634;28;20122;-54
2023/09/25 01:00:27;;;;;;;2.88;1.38;;;14.70;99.90;;;;;;5073462;28;20031;-52
2023/09/25 01:02:53;;;;;;;3.33;1.58;;;14.70;99.90;;;;;;5073153;28;20497;-51
2023/09/25 01:05:19;;;;;;;1.45;0.95;;;14.70;99.90;;;;;;5071131;28;20039;-52
2023/09/25 01:07:44;;;;;;;3.63;1.50;;;14.60;99.90;;;;;;5072874;28;20108;-53
2023/09/25 01:10:15;;;;;;;1.52;1.42;;;14.60;99.90;;;;;;5073363;28;20477;-43
2023/09/25 01:12:42;;;;;;;3.25;1.50;;;14.60;99.90;;;;;;5073653;28;20048;-42
2023/09/25 01:15:08;;;;;;;5.13;1.98;;;14.60;99.90;;;;;;5073120;28;20056;-39
2023/09/25 01:17:34;;;;;;;1.55;1.33;;;14.60;99.90;;;;;;5073231;28;20035;-40
2023/09/25 01:20:01;;;;;;;2.65;1.35;;;14.50;99.90;;;;;;5073197;28;20036;-39
2023/09/25 01:22:27;;;;;;;3.42;1.55;;;14.40;99.90;;;;;;5073194;28;20024;-39
2023/09/25 01:24:53;;;;;;;3.00;1.55;;;14.40;99.90;;;;;;5073007;28;20398;-40
2023/09/25 01:27:19;;;;;;;2.10;1.50;;;14.40;99.90;;;;;;5073105;28;20024;-41
2023/09/25 01:29:44;;;;;;;4.53;1.38;;;14.40;99.90;;;;;;5073088;28;20027;-38
2023/09/25 01:32:11;;;;;;;5.47;1.30;;;14.40;99.90;;;;;;5073019;28;20385;-39
2023/09/25 01:34:37;;;;;;;4.05;1.88;;;14.40;99.90;;;;;;5073040;28;20027;-39
2023/09/25 01:37:04;;;;;;;4.13;1.80;;;14.40;99.90;;;;;;5073049;28;20032;-39
2023/09/25 01:39:31;;;;;;;1.73;1.27;;;14.40;99.90;;;;;;5073184;28;20415;-39
2023/09/25 01:41:56;;;;;;;6.50;2.43;;;14.40;99.90;;;;;;5072998;28;20032;-42
2023/09/25 01:44:23;;;;;;;2.70;1.55;;;14.40;99.90;;;;;;5072864;28;20035;-39
2023/09/25 01:46:49;;;;;;;4.47;2.30;;;14.40;99.90;;;;;;5072837;28;20035;-41
2023/09/25 01:49:15;;;;;;;2.50;1.58;;;14.30;99.90;;;;;;5072886;28;20564;-38
2023/09/25 01:51:43;;;;;;;3.20;1.45;;;14.30;99.90;;;;;;5072821;28;20481;-41
2023/09/25 01:54:09;;;;;;;1.50;1.38;;;14.20;99.90;;;;;;5072766;28;20077;-52
2023/09/25 01:56:35;;;;;;;4.55;1.92;;;14.20;99.90;;;;;;5072750;28;20481;-50
2023/09/25 01:59:00;;;;;;;4.07;1.40;;;14.20;99.90;;;;;;5071408;28;20102;-54
2023/09/25 02:01:26;;;;;;;1.83;1.38;;;14.20;99.90;;;;;;5072003;28;20021;-50
2023/09/25 02:03:52;;;;;;;4.63;2.22;;;14.20;99.90;;;;;;5072511;28;20047;-53
2023/09/25 02:06:17;;;;;;;3.53;1.27;;;14.20;99.90;;;;;;5072575;28;20056;-53
2023/09/25 02:08:43;;;;;;;1.33;1.20;;;14.20;99.90;;;;;;5072877;28;20024;-53
2023/09/25 02:11:08;;;;;;;5.85;1.63;;;14.10;99.90;;;;;;5072607;28;20064;-53
2023/09/25 02:13:34;;;;;;;3.17;1.58;;;14.10;99.90;;;;;;5072888;28;20021;-54
2023/09/25 02:16:00;;;;;;;1.75;1.40;;;14.10;99.90;;;;;;5072428;28;20033;-55
2023/09/25 02:18:25;;;;;;;2.63;1.50;;;14.10;99.90;;;;;;5071214;28;20489;-51
2023/09/25 02:20:51;;;;;;;6.65;1.58;;;14.10;99.90;;;;;;5072420;28;20059;-54
2023/09/25 02:23:17;;;;;;;1.95;1.20;;;14.10;99.90;;;;;;5072742;28;20032;-52
2023/09/25 02:25:42;;;;;;;5.15;1.42;;;14.10;99.90;;;;;;5072349;28;20096;-48
2023/09/25 02:28:08;;;;;;;4.88;1.38;;;14.10;99.90;;;;;;5072468;28;20032;-53
2023/09/25 02:30:34;;;;;;;2.63;1.35;;;14.10;99.90;;;;;;5072434;28;20031;-51
2023/09/25 02:32:59;;;;;;;3.17;1.40;;;14.00;99.90;;;;;;5072426;28;20048;-54
2023/09/25 02:35:25;;;;;;;2.28;1.20;;;14.10;99.90;;;;;;5072410;28;20481;-51
2023/09/25 02:37:51;;;;;;;2.30;1.58;;;14.00;99.90;;;;;;5072351;28;20029;-52
2023/09/25 02:40:17;;;;;;;2.83;1.65;;;14.00;99.90;;;;;;5072622;28;20378;-54
2023/09/25 02:42:44;;;;;;;3.05;1.67;;;13.90;99.90;;;;;;5072327;28;20052;-54
2023/09/25 02:45:11;;;;;;;7.40;1.48;;;13.90;99.90;;;;;;5072516;28;20029;-53
2023/09/25 02:47:36;;;;;;;2.15;1.60;;;13.90;99.90;;;;;;5072255;28;20113;-53
2023/09/25 02:50:02;;;;;;;2.97;1.58;;;13.90;99.90;;;;;;5072468;28;20488;-53
2023/09/25 02:52:28;;;;;;;2.60;1.35;;;14.00;99.90;;;;;;5072202;28;20057;-54
2023/09/25 02:54:54;;;;;;;2.58;1.27;;;14.00;99.90;;;;;;5072455;28;20025;-53
2023/09/25 02:57:19;;;;;;;3.40;1.40;;;14.00;99.90;;;;;;5071201;28;20064;-53
2023/09/25 02:59:45;;;;;;;1.88;1.50;;;14.00;99.90;;;;;;5072178;28;20173;-53
2023/09/25 03:02:11;;;;;;;4.03;1.58;;;14.00;99.90;;;;;;5071920;28;20072;-51
2023/09/25 03:04:37;;;;;;;2.58;1.70;;;13.90;99.90;;;;;;5072057;28;20036;-53
2023/09/25 03:07:02;;;;;;;2.70;1.42;;;14.00;99.90;;;;;;5071102;28;20016;-53
2023/09/25 03:09:28;;;;;;;3.30;1.20;;;14.00;99.90;;;;;;5072304;28;20181;-53
2023/09/25 03:11:54;;;;;;;2.83;1.73;;;13.90;99.90;;;;;;5072304;28;20100;-55
2023/09/25 03:14:19;;;;;;;1.77;1.65;;;13.90;99.90;;;;;;5075381;28;20108;-40
2023/09/25 03:16:46;;;;;;;2.47;1.55;;;13.90;99.90;;;;;;5075564;28;20060;-37
2023/09/25 03:19:12;;;;;;;5.20;1.48;;;13.90;99.90;;;;;;5075762;28;20056;-42
2023/09/25 03:21:40;;;;;;;1.50;1.27;;;13.90;99.90;;;;;;5075400;28;20071;-41
2023/09/25 03:24:06;;;;;;;1.05;0.90;;;14.00;99.90;;;;;;5075255;28;20152;-40
2023/09/25 03:26:32;;;;;;;2.35;1.63;;;14.00;99.90;;;;;;5075341;28;20029;-43
2023/09/25 03:29:00;;;;;;;2.08;1.55;;;13.90;99.90;;;;;;5075319;28;20089;-43
2023/09/25 03:31:26;;;;;;;1.83;1.33;;;14.00;99.90;;;;;;5075265;28;20025;-43
2023/09/25 03:33:52;;;;;;;2.80;1.65;;;14.00;99.90;;;;;;5075227;28;20024;-43
2023/09/25 03:36:17;;;;;;;3.35;1.40;;;14.00;99.90;;;;;;5075186;28;20050;-41
2023/09/25 03:38:43;;;;;;;3.15;1.10;;;14.00;99.90;;;;;;5075161;28;20054;-44
2023/09/25 03:41:09;;;;;;;2.30;1.17;;;14.00;99.90;;;;;;5075143;28;20036;-40
2023/09/25 03:43:34;;;;;;;3.75;1.20;;;13.90;99.90;;;;;;5075030;28;20032;-38
2023/09/25 03:46:00;;;;;;;2.13;1.33;;;13.90;99.90;;;;;;5075166;28;20611;-39
2023/09/25 03:48:26;;;;;;;2.30;1.30;;;13.80;99.90;;;;;;5074966;28;20081;-37
2023/09/25 03:50:52;;;;;;;2.00;1.80;;;13.80;99.90;;;;;;5073610;28;20024;-39
2023/09/25 03:53:17;;;;;;;2.03;1.20;;;13.80;99.90;;;;;;5074863;28;20025;-40
2023/09/25 03:55:44;;;;;;;1.70;1.23;;;13.80;99.90;;;;;;5074808;28;20036;-38
2023/09/25 03:58:09;;;;;;;3.25;1.30;;;13.80;99.90;;;;;;5075067;28;20024;-39
2023/09/25 04:00:37;;;;;;;1.50;1.17;;;13.70;99.90;;;;;;5074688;28;20028;-42
2023/09/25 04:03:03;;;;;;;2.67;1.40;;;13.70;99.90;;;;;;5074521;28;20044;-40
2023/09/25 04:05:28;;;;;;;2.63;1.33;;;13.80;99.90;;;;;;5074580;28;20032;-38
2023/09/25 04:07:54;;;;;;;1.98;1.70;;;13.70;99.90;;;;;;5073297;28;20021;-39
2023/09/25 04:10:19;;;;;;;3.17;1.70;;;13.70;99.90;;;;;;5074534;28;20396;-39
2023/09/25 04:12:45;;;;;;;1.60;1.30;;;13.70;99.90;;;;;;5074442;28;20031;-37
2023/09/25 04:15:14;;;;;;;2.80;1.33;;;13.80;99.90;;;;;;5074542;28;20481;-38
2023/09/25 04:17:40;;;;;;;1.77;1.58;;;13.70;99.90;;;;;;5074358;28;20029;-39
2023/09/25 04:20:09;;;;;;;1.67;1.20;;;13.70;99.90;;;;;;5074251;28;20032;-42
2023/09/25 04:22:37;;;;;;;2.38;1.50;;;13.70;99.90;;;;;;5074474;28;20067;-39
2023/09/25 04:25:08;;;;;;;4.20;1.60;;;13.70;99.90;;;;;;5073705;28;20029;-41
2023/09/25 04:27:35;;;;;;;6.40;1.63;;;13.80;99.90;;;;;;5074485;28;20021;-38
2023/09/25 04:30:04;;;;;;;2.15;1.92;;;13.80;99.90;;;;;;5074170;28;20028;-39
2023/09/25 04:32:32;;;;;;;3.13;1.60;;;13.70;99.90;;;;;;5074352;28;20439;-38
2023/09/25 04:34:58;;;;;;;2.78;1.40;;;13.70;99.90;;;;;;5073987;28;20121;-39
2023/09/25 04:37:23;;;;;;;6.25;1.42;;;13.70;99.90;;;;;;5073977;28;20060;-39
2023/09/25 04:39:49;;;;;;;4.22;2.13;;;13.80;99.90;;;;;;5073873;28;20060;-38
2023/09/25 04:42:15;;;;;;;6.72;1.33;;;13.80;99.90;;;;;;5074088;28;20473;-37
2023/09/25 04:44:41;;;;;;;4.30;1.65;;;13.70;99.90;;;;;;5073705;28;20424;-38
2023/09/25 04:47:06;;;;;;;2.17;1.70;;;13.70;99.90;;;;;;5073716;28;20021;-37
2023/09/25 04:49:32;;;;;;;3.75;1.50;;;13.80;99.90;;;;;;5073734;28;20149;-42
2023/09/25 04:51:58;;;;;;;4.43;1.40;;;13.80;99.90;;;;;;5073648;28;20078;-38
2023/09/25 04:54:24;;;;;;;3.15;1.30;;;13.80;99.90;;;;;;5073868;28;20020;-41
2023/09/25 04:56:49;;;;;;;5.60;1.60;;;13.80;99.90;;;;;;5073529;28;20036;-37
2023/09/25 04:59:15;;;;;;;3.58;1.27;;;13.80;99.90;;;;;;5073773;28;20020;-38
2023/09/25 05:01:41;;;;;;;1.73;1.13;;;13.80;99.90;;;;;;5073251;28;20027;-41
2023/09/25 05:04:06;;;;;;;1.90;1.10;;;13.80;99.90;;;;;;5073254;28;20033;-38
2023/09/25 05:06:32;;;;;;;1.60;1.25;;;13.90;99.90;;;;;;5073344;28;20028;-38
2023/09/25 05:08:58;;;;;;;3.92;1.20;;;14.00;99.90;;;;;;5073301;28;20024;-41
2023/09/25 05:11:23;;;;;;;2.60;1.70;;;14.00;99.90;;;;;;5073308;28;20020;-41
2023/09/25 05:13:49;;;;;;;4.05;1.60;;;14.00;99.90;;;;;;5073242;28;20560;-37
2023/09/25 05:16:15;;;;;;;1.98;1.15;;;14.00;99.90;;;;;;5073432;28;20389;-40
2023/09/25 05:18:42;;;;;;;1.88;1.40;;;14.00;99.90;;;;;;5073467;28;20029;-39
2023/09/25 05:21:07;;;;;;;2.65;1.17;;;14.00;99.90;;;;;;5073210;28;20033;-38
2023/09/25 05:23:33;;;;;;;1.70;1.02;;;14.00;99.90;;;;;;5073130;28;20031;-39
2023/09/25 05:25:59;;;;;;;3.03;1.13;;;14.00;99.90;;;;;;5072947;28;20028;-39
2023/09/25 05:28:24;;;;;;;2.70;1.70;;;14.00;99.90;;;;;;5073117;28;20384;-40
2023/09/25 05:30:53;;;;;;;3.17;1.65;;;14.00;99.90;;;;;;5073349;28;20025;-41
2023/09/25 05:33:20;;;;;;;3.05;1.58;;;14.00;99.90;;;;;;5073241;28;20492;-39
2023/09/25 05:35:47;;;;;;;1.60;1.40;;;14.10;99.90;;;;;;5072234;28;20024;-39
2023/09/25 05:38:12;;;;;;;2.17;1.17;;;14.00;99.90;;;;;;5072820;28;20036;-38
2023/09/25 05:40:38;;;;;;;2.90;1.85;;;14.00;99.90;;;;;;5073184;28;20032;-38
2023/09/25 05:43:04;;;;;;;2.75;1.80;;;14.10;99.90;;;;;;5072997;28;20028;-38
2023/09/25 05:45:29;;;;;;;2.67;1.52;;;14.10;99.90;;;;;;5072955;28;20021;-44
2023/09/25 05:47:55;;;;;;;3.85;1.35;;;14.10;99.90;;;;;;5072884;28;20029;-39
2023/09/25 05:50:21;;;;;;;1.60;0.95;;;14.20;99.90;;;;;;5072566;28;20060;-41
2023/09/25 05:52:46;;;;;;;2.30;1.38;;;14.20;99.90;;;;;;5072508;28;20111;-42
2023/09/25 05:55:12;;;;;;;3.13;1.65;;;14.20;99.90;;;;;;5072860;28;20414;-38
2023/09/25 05:57:38;;;;;;;1.52;1.33;;;14.20;99.90;;;;;;5072498;28;20033;-40
2023/09/25 06:00:14;;;;;;;3.25;1.20;;;14.30;99.90;;;;;;5072498;28;20150;-37
2023/09/25 06:02:41;;;;;;;1.75;1.08;;;14.30;99.90;;;;;;5072507;28;20355;-39
2023/09/25 06:05:08;;;;;;;1.27;0.73;;;14.40;99.90;;;;;;5072876;28;20033;-39
2023/09/25 06:07:35;;;;;;;5.50;0.95;;;14.40;99.90;;;;;;5072694;28;20385;-38
2023/09/25 06:10:02;;;;;;;9.38;1.40;;;14.50;99.90;;;;;;5072546;28;20024;-47
2023/09/25 06:12:27;;;;;;;2.33;1.57;;;14.50;99.90;;;;;;5071310;28;20034;-38
2023/09/25 06:14:53;;;;;;;4.43;1.65;;;14.50;99.90;;;;;;5072343;28;20385;-38
2023/09/25 06:17:19;;;;;;;3.45;1.27;;;14.60;99.90;;;;;;5072445;28;20032;-39
2023/09/25 06:19:45;;;;;;;2.25;1.15;;;14.60;99.90;;;;;;5072487;28;20043;-38
2023/09/25 06:22:11;;;;;;;1.35;1.10;;;14.60;99.90;;;;;;5071548;28;20107;-38
2023/09/25 06:24:36;;;;;;;2.25;1.30;;;14.70;99.90;;;;;;5072310;28;20105;-41
2023/09/25 06:27:02;;;;;;;4.80;1.30;;;14.70;99.90;;;;;;5072704;28;20044;-38
2023/09/25 06:29:28;;;;;;;2.33;1.25;;;14.80;99.90;;;;;;5072440;28;20033;-41
2023/09/25 06:31:53;;;;;;;1.60;1.15;;;14.90;99.90;;;;;;5072289;28;20540;-39
2023/09/25 06:34:19;;;;;;;3.42;1.10;;;14.90;99.90;;;;;;5072288;28;20393;-39
2023/09/25 06:36:44;;;;;;;2.15;1.38;;;14.90;99.90;;;;;;5072298;28;20020;-40
2023/09/25 06:39:10;;;;;;;2.30;1.20;;;14.90;99.90;;;;;;5072335;28;20078;-39
2023/09/25 06:41:37;;;;;;;3.58;1.58;;;14.90;99.90;;;;;;5072802;28;20377;-41
2023/09/25 06:44:04;;;;;;;5.78;1.45;;;15.00;99.90;;;;;;5072254;28;20052;-40
2023/09/25 06:46:31;;;;;;;2.15;1.17;;;14.90;99.90;;;;;;5073349;28;20024;-39
2023/09/25 06:48:57;;;;;;;3.53;1.75;;;14.90;99.90;;;;;;5074735;28;20028;-39
2023/09/25 06:51:23;;;;;;;2.45;1.50;;;14.90;99.90;;;;;;5076021;28;20492;-45
2023/09/25 06:53:49;;;;;;;4.22;1.48;;;15.00;99.90;;;;;;5075068;28;20477;-38
2023/09/25 06:56:15;;;;;;;4.53;1.50;;;15.00;99.90;;;;;;5075824;28;20107;-41
2023/09/25 06:58:42;;;;;;;6.40;1.70;;;15.00;99.90;;;;;;5075906;28;20032;-39
2023/09/25 07:01:07;;;;;;;4.53;1.20;;;15.00;99.90;;;;;;5076097;28;20503;-41
2023/09/25 07:03:33;;;;;;;3.42;1.35;;;15.10;99.90;;;;;;5075359;28;20075;-41
2023/09/25 07:05:59;;;;;;;2.40;1.30;;;15.10;99.90;;;;;;5075676;28;20185;-39
2023/09/25 07:08:26;;;;;;;1.35;1.25;;;15.20;99.90;;;;;;5075783;28;20448;-39
2023/09/25 07:10:52;;;;;;;4.50;1.13;;;15.30;99.90;;;;;;5075813;28;20016;-39
2023/09/25 07:13:19;;;;;;;2.10;1.13;;;15.30;99.90;;;;;;5075609;28;20507;-41
2023/09/25 07:15:45;;;;;;;;;;;15.40;99.90;;;;;;5075940;28;20043;-43
2023/09/25 07:18:11;;;;;;;2.53;1.23;;;15.50;99.90;;;;;;5075621;28;19918;-43
2023/09/25 07:20:37;;;;;;;2.95;1.10;;;15.50;99.90;;;;;;5075550;28;20476;-42
2023/09/25 07:23:03;;;;;;;1.70;1.20;;;15.50;99.90;;;;;;5075475;28;20153;-40
2023/09/25 07:25:29;;;;;;;3.75;1.38;;;15.60;99.90;;;;;;5075563;28;20024;-39
2023/09/25 07:27:55;;;;;;;3.60;1.35;;;15.60;99.90;;;;;;5075377;28;20370;-40
2023/09/25 07:30:21;;;;;;;2.58;1.08;;;15.70;99.90;;;;;;5075326;28;20024;-39
2023/09/25 07:32:47;;;;;;;2.33;1.45;;;15.70;99.90;;;;;;5075264;28;20025;-40
2023/09/25 07:35:15;;;;;;;1.10;1.00;;;15.80;99.90;;;;;;5075182;28;20032;-40
2023/09/25 07:37:44;;;;;;;2.20;1.25;;;15.80;99.90;;;;;;5073800;28;20495;-45
2023/09/25 07:40:12;;;;;;;2.20;1.08;;;15.90;99.90;;;;;;5075091;28;20115;-40
2023/09/25 07:42:38;;;;;;;6.18;1.20;;;15.90;99.90;;;;;;5075403;28;20028;-41
2023/09/25 07:45:09;;;;;;;2.00;1.25;;;16.00;99.90;;;;;;5075250;28;20025;-39
2023/09/25 07:47:38;;;;;;;5.10;1.27;;;16.10;99.90;;;;;;5075287;28;20499;-42
2023/09/25 07:50:11;;;;;;;3.05;1.05;;;16.20;99.90;;;;;;5074912;28;20025;-39
2023/09/25 07:52:38;;;;;;;1.55;1.10;;;16.30;99.90;;;;;;5075009;28;20021;-40
2023/09/25 07:55:07;;;;;;;1.35;1.00;;;16.30;99.90;;;;;;5073608;28;20032;-43
2023/09/25 07:57:39;;;;;;;5.53;1.20;;;16.40;99.90;;;;;;5074728;28;20090;-44
2023/09/25 08:00:23;;;;;;;4.30;1.63;;;16.40;99.90;;;;;;5074707;28;20111;-41
2023/09/25 08:02:52;;;;;;;1.55;0.98;;;16.50;99.90;;;;;;5074825;28;20519;-42
2023/09/25 08:05:19;;;;;;;2.90;1.73;;;16.50;99.90;;;;;;5074833;28;20123;-40
2023/09/25 08:07:49;;;;;;;2.22;1.75;;;16.60;99.90;;;;;;5074633;28;20109;-39
2023/09/25 08:10:17;;;;;;;1.45;1.15;;;16.70;99.90;;;;;;5074643;28;20029;-40
2023/09/25 08:12:43;;;;;;;2.80;1.20;;;16.70;99.90;;;;;;5074554;28;20070;-39
2023/09/25 08:15:10;;;;;;;2.17;1.30;;;16.70;99.90;;;;;;5074361;28;20044;-40
2023/09/25 08:17:36;;;;;;;2.65;1.52;;;16.80;99.90;;;;;;5074343;28;20062;-39
2023/09/25 08:20:14;;;;;;;2.00;1.38;;;16.70;99.90;;;;;;5074413;28;20043;-39
2023/09/25 08:22:40;;;;;;;;;;;16.70;99.90;;;;;;5074783;28;20020;-42
2023/09/25 08:25:06;;;;;;;1.95;1.13;;;16.70;99.90;;;;;;5074403;28;19912;-39
2023/09/25 08:27:32;;;;;;;4.60;1.20;;;16.70;99.90;;;;;;5074506;28;20422;-39
2023/09/25 08:29:57;;;;;;;4.32;1.60;;;16.80;99.90;;;;;;5074161;28;20063;-40
2023/09/25 08:32:23;;;;;;;1.52;1.30;;;16.80;99.90;;;;;;5074352;28;20096;-40
2023/09/25 08:34:49;;;;;;;4.95;1.52;;;16.90;99.90;;;;;;5074034;28;20033;-41
2023/09/25 08:37:14;;;;;;;1.85;1.20;;;17.00;99.90;;;;;;5074028;28;20138;-44
2023/09/25 08:39:40;;;;;;;2.30;1.55;;;17.10;99.90;;;;;;5073879;28;20035;-38
2023/09/25 08:42:06;;;;;;;4.55;1.42;;;17.10;99.90;;;;;;5074133;28;20436;-41
2023/09/25 08:44:32;;;;;;;4.63;1.23;;;17.30;99.90;;;;;;5073792;28;20120;-39
2023/09/25 08:46:58;;;;;;;2.05;1.30;;;17.40;99.90;;;;;;5073787;28;20032;-41
2023/09/25 08:49:24;;;;;;;2.25;1.23;;;17.50;99.90;;;;;;5055911;28;20021;-38
2023/09/25 08:51:52;;;;;;;3.58;1.08;;;17.60;99.90;;;;;;5073694;28;20393;-42
2023/09/25 08:54:17;;;;;;;3.53;1.40;;;17.70;99.90;;;;;;5073561;28;20033;-41
2023/09/25 08:56:45;;;;;;;1.92;1.23;;;17.80;99.90;;;;;;5073514;28;20516;-39
2023/09/25 08:59:11;;;;;;;2.03;1.30;;;17.90;99.90;;;;;;5073612;28;20032;-43
2023/09/25 09:01:37;;;;;;;6.70;1.52;;;17.90;99.90;;;;;;5073843;28;20579;-40
2023/09/25 09:04:03;;;;;;;5.95;1.30;;;18.00;99.90;;;;;;5073425;28;20033;-45
2023/09/25 09:06:29;;;;;;;2.00;1.50;;;18.00;99.90;;;;;;5073657;28;20064;-41
2023/09/25 09:08:57;;;;;;;2.97;1.67;;;18.10;99.90;;;;;;5073433;28;20508;-43
2023/09/25 09:11:23;;;;;;;4.88;1.27;;;18.10;99.90;;;;;;5073419;28;20024;-41
2023/09/25 09:13:49;;;;;;;2.75;1.40;;;18.20;99.90;;;;;;5073575;28;20033;-43
2023/09/25 09:16:16;;;;;;;2.42;1.20;;;18.30;99.90;;;;;;5073105;28;20028;-40
2023/09/25 09:18:42;;;;;;;1.75;1.20;;;18.20;99.90;;;;;;5073577;28;20500;-38
2023/09/25 09:21:27;;;;;;;2.33;1.30;;;18.20;99.90;;;;;;5073460;28;20052;-41
2023/09/25 09:23:55;;;;;;;1.50;1.25;;;18.20;99.90;;;;;;5073378;28;20058;-43
2023/09/25 09:26:21;;;;;;;4.28;1.65;;;18.30;99.90;;;;;;5073351;28;20363;-45
2023/09/25 09:28:47;;;;;;;1.92;1.08;;;18.30;99.90;;;;;;5071483;28;20039;-41
2023/09/25 09:31:16;;;;;;;1.98;1.17;;;18.40;99.90;;;;;;5073284;28;20024;-41
2023/09/25 09:33:42;;;;;;;1.75;0.82;;;18.40;99.90;;;;;;5072952;28;20016;-40
2023/09/25 09:36:12;;;;;;;2.45;1.48;;;18.50;99.90;;;;;;5072911;28;20031;-38
2023/09/25 09:38:39;;;;;;;2.20;1.10;;;18.60;99.90;;;;;;5072951;28;20052;-39
2023/09/25 09:41:06;;;;;;;3.05;1.30;;;18.70;99.90;;;;;;5073224;28;20064;-44
2023/09/25 09:43:32;;;;;;;2.27;1.13;;;18.80;99.90;;;;;;5073117;28;20021;-38
2023/09/25 09:45:59;;;;;;;1.48;1.20;;;18.80;99.90;;;;;;5073125;28;20040;-39
2023/09/25 09:48:26;;;;;;;1.60;0.90;;;18.90;99.90;;;;;;5072827;28;20028;-40
2023/09/25 09:50:59;;;;;;;1.48;1.17;;;18.90;99.90;;;;;;5072554;28;20041;-41
2023/09/25 09:53:28;;;;;;;2.92;1.17;;;18.90;99.90;;;;;;5072843;28;20099;-38
2023/09/25 09:55:54;;;;;;;2.15;1.20;;;18.90;99.90;;;;;;5072967;28;20021;-38
2023/09/25 09:58:20;;;;;;;2.15;1.23;;;18.90;99.90;;;;;;5073012;28;20370;-37
2023/09/25 10:00:46;;;;;;;3.58;1.02;;;18.90;99.90;;;;;;5072655;28;20035;-38
2023/09/25 10:03:12;;;;;;;6.05;1.40;;;18.90;99.90;;;;;;5072561;28;20501;-39
2023/09/25 10:05:45;;;;;;;3.22;1.25;;;19.00;99.90;;;;;;5071269;28;20408;-39
2023/09/25 10:08:11;;;;;;;2.30;1.30;;;19.10;99.90;;;;;;5072598;28;20104;-38
2023/09/25 10:10:38;;;;;;;3.50;1.40;;;19.20;99.90;;;;;;5072633;28;20016;-39
2023/09/25 10:13:09;;;;;;;1.17;1.08;;;19.20;99.90;;;;;;5072625;28;20021;-40
2023/09/25 10:15:35;;;;;;;2.72;1.33;;;19.40;99.90;;;;;;5072499;28;20043;-37
2023/09/25 10:18:01;;;;;;;3.85;1.60;;;19.40;99.90;;;;;;5072548;28;20393;-41
2023/09/25 10:20:33;;;;;;;1.67;1.00;;;19.50;99.90;;;;;;5072775;28;20029;-41
2023/09/25 10:23:03;;;;;;;2.83;1.60;;;19.60;99.90;;;;;;5074556;28;20456;-42
2023/09/25 10:25:48;;;;;;;2.25;1.80;;;19.70;99.90;;;;;;5076665;28;20039;-43
2023/09/25 10:28:38;;;;;;;2.42;1.02;;;19.80;99.90;;;;;;5076502;28;20055;-39
2023/09/25 10:31:17;;;;;;;2.00;1.25;;;20.00;99.90;;;;;;5076474;28;20495;-38
2023/09/25 10:34:00;;;;;;;6.32;2.00;;;20.00;99.90;;;;;;5076471;28;20063;-51
2023/09/25 10:36:42;;;;;;;7.90;1.60;;;20.20;99.90;;;;;;5076652;28;20362;-54
2023/09/25 10:39:09;;;;;;;3.95;1.52;;;20.30;99.90;;;;;;5076489;28;20396;-45
2023/09/25 10:41:37;;;;;;;2.25;1.92;;;20.30;99.90;;;;;;5063951;28;20025;-49
2023/09/25 10:44:03;;;;;;;3.13;1.60;;;20.40;99.90;;;;;;5071459;28;20519;-50
2023/09/25 10:46:28;;;;;;;2.50;1.33;;;20.30;99.90;;;;;;5072984;28;20036;-41
2023/09/25 10:48:54;;;;;;;3.50;1.42;;;20.30;99.90;;;;;;5073478;28;20548;-38
2023/09/25 10:51:20;;;;;;;2.35;1.55;;;20.40;99.90;;;;;;5069927;28;20366;-38
2023/09/25 10:53:46;;;;;;;4.70;1.65;;;20.40;99.90;;;;;;5070498;28;20016;-40
2023/09/25 10:56:12;;;;;;;1.45;1.25;;;20.40;99.90;;;;;;5070591;28;20021;-39
2023/09/25 10:58:38;;;;;;;6.03;1.85;;;20.50;99.90;;;;;;5072147;28;20036;-45
2023/09/25 11:01:04;;;;;;;1.17;1.08;;;20.70;99.90;;;;;;5072419;28;20096;-41
2023/09/25 11:03:34;;;;;;;7.40;1.40;;;20.70;99.90;;;;;;5071042;28;20048;-40
2023/09/25 11:06:00;;;;;;;2.00;1.38;;;20.90;99.90;;;;;;5072175;28;20028;-41
2023/09/25 11:08:26;;;;;;;1.65;1.30;;;21.00;99.90;;;;;;5061402;28;20028;-40
2023/09/25 11:10:52;;;;;;;2.13;1.02;;;21.20;99.90;;;;;;5074056;28;20024;-39
2023/09/25 11:13:18;;;;;;;5.88;1.70;;;21.40;99.90;;;;;;5073123;28;20093;-42
2023/09/25 11:15:45;;;;;;;2.10;1.50;;;21.40;99.90;;;;;;5074346;28;20025;-40
2023/09/25 11:18:12;;;;;;;2.97;1.58;;;21.40;99.90;;;;;;5073052;28;20389;-41
2023/09/25 11:20:39;;;;;;;3.28;1.48;;;21.40;99.90;;;;;;5075500;28;20391;-40
2023/09/25 11:23:09;;;;;;;2.83;1.35;;;21.40;99.90;;;;;;5071675;28;20056;-44
2023/09/25 11:25:46;;;;;;;2.20;1.48;;;21.40;99.90;;;;;;5073702;28;20473;-44
2023/09/25 11:28:20;;;;;;;1.70;1.52;;;21.40;99.90;;;;;;5072099;28;20040;-41
2023/09/25 11:30:46;;;;;;;5.15;1.98;;;21.50;99.90;;;;;;5074447;28;20469;-45
2023/09/25 11:33:21;;;;;;;2.67;1.70;;;21.40;99.90;;;;;;5070043;28;20021;-45
2023/09/25 11:35:49;;;;;;;2.80;1.05;;;21.60;99.90;;;;;;5071072;28;20119;-40
2023/09/25 11:38:28;;;;;;;2.38;1.40;;;21.60;99.90;;;;;;5071930;28;20026;-40
2023/09/25 11:40:54;;;;;;;2.60;1.63;;;21.70;99.90;;;;;;5064766;28;20504;-41
2023/09/25 11:43:19;;;;;;;4.63;1.77;;;21.70;99.90;;;;;;5072390;28;20029;-39
2023/09/25 11:45:46;;;;;;;2.80;1.92;;;21.70;99.90;;;;;;5070659;28;20526;-39
2023/09/25 11:48:18;;;;;;;2.10;1.40;;;21.60;99.90;;;;;;5074920;28;20021;-41
2023/09/25 11:50:44;;;;;;;2.50;1.45;;;21.60;99.90;;;;;;5072013;28;20078;-44
2023/09/25 11:53:09;;;;;;;2.67;1.65;;;21.60;99.90;;;;;;5074702;28;20021;-39
2023/09/25 11:55:36;;;;;;;3.17;1.60;;;21.80;99.90;;;;;;5070906;28;20028;-41
2023/09/25 11:58:05;;;;;;;4.03;1.67;;;22.00;99.90;;;;;;5072778;28;20070;-41
2023/09/25 12:00:31;;;;;;;3.10;1.50;;;22.00;99.90;;;;;;5067133;28;20027;-41
2023/09/25 12:02:58;;;;;;;2.70;1.40;;;22.10;99.90;;;;;;5066163;28;20032;-42
2023/09/25 12:05:25;;;;;;;5.97;1.80;;;22.10;99.90;;;;;;5073078;28;20085;-42
2023/09/25 12:07:51;;;;;;;3.13;1.55;;;22.10;99.90;;;;;;5070420;28;20112;-39
2023/09/25 12:10:17;;;;;;;2.13;1.10;;;22.10;99.90;;;;;;5069058;28;20447;-43
2023/09/25 12:12:44;;;;;;;5.85;1.80;;;22.20;99.90;;;;;;5071772;28;20069;-39
2023/09/25 12:15:12;;;;;;;4.97;1.33;;;22.30;99.90;;;;;;5071919;28;20059;-39
2023/09/25 12:17:38;;;;;;;2.67;1.75;;;22.40;99.90;;;;;;5058395;28;20581;-44
2023/09/25 12:20:15;;;;;;;6.00;1.60;;;22.50;99.90;;;;;;5067915;28;20028;-39
2023/09/25 12:22:45;;;;;;;1.45;1.30;;;22.60;99.90;;;;;;5070444;28;20054;-42
2023/09/25 12:25:16;;;;;;;1.58;1.17;;;22.80;99.90;;;;;;5073071;28;20544;-42
2023/09/25 12:27:43;;;;;;;3.90;1.38;;;22.80;99.90;;;;;;5074223;28;20025;-42
2023/09/25 12:30:15;;;;;;;5.88;1.50;;;22.90;99.90;;;;;;5073217;28;20028;-40
2023/09/25 12:32:43;;;;;;;2.35;1.20;;;22.80;99.90;;;;;;5071716;28;20623;-40
2023/09/25 12:35:08;;;;;;;;;;;22.60;99.90;;;;;;5071989;28;20040;-39
2023/09/25 12:37:34;;;;;;;2.47;1.17;;;22.40;99.90;;;;;;5070722;28;19915;-42
2023/09/25 12:40:01;;;;;;;2.97;1.33;;;22.40;99.90;;;;;;5062929;28;20037;-41
2023/09/25 12:42:28;;;;;;;3.50;1.52;;;22.50;99.90;;;;;;5073074;28;20329;-42
2023/09/25 12:44:54;;;;;;;2.15;1.30;;;22.60;99.90;;;;;;5060338;28;20302;-41
2023/09/25 12:47:21;;;;;;;1.77;1.52;;;22.80;99.90;;;;;;5063865;28;20052;-39